sensor_id;sensor_type;location;lat;lon;timestamp;temperature;humidity
24468;DHT22;12634;50.852;5.676;2023-01-16T00:00:18;5.50;99.90
24468;DHT22;12634;50.852;5.676;2023-01-16T00:02:46;5.50;99.90
24468;DHT22;12634;50.852;5.676;2023-01-16T00:05:13;5.60;99.90
24468;DHT22;12634;50.852;5.676;2023-01-16T00:07:40;5.60;99.90
24468;DHT22;12634;50.852;5.676;2023-01-16T00:10:08;5.60;99.90
24468;DHT22;12634;50.852;5.676;2023-01-16T00:12:36;5.50;99.90
24468;DHT22;12634;50.852;5.676;2023-01-16T00:15:05;5.50;99.90
24468;DHT22;12634;50.852;5.676;2023-01-16T00:17:32;5.50;99.90
24468;DHT22;12634;50.852;5.676;2023-01-16T00:20:00;5.50;99.90
24468;DHT22;12634;50.852;5.676;2023-01-16T00:22:27;5.50;99.90
24468;DHT22;12634;50.852;5.676;2023-01-16T00:24:54;5.40;99.90
24468;DHT22;12634;50.852;5.676;2023-01-16T00:27:21;5.50;99.90
24468;DHT22;12634;50.852;5.676;2023-01-16T00:29:49;5.50;99.90
24468;DHT22;12634;50.852;5.676;2023-01-16T00:32:17;5.60;99.90
24468;DHT22;12634;50.852;5.676;2023-01-16T00:34:44;5.50;99.90
24468;DHT22;12634;50.852;5.676;2023-01-16T00:37:12;5.40;99.90
24468;DHT22;12634;50.852;5.676;2023-01-16T00:39:39;5.60;99.90
24468;DHT22;12634;50.852;5.676;2023-01-16T00:42:06;5.50;99.90
24468;DHT22;12634;50.852;5.676;2023-01-16T00:44:34;5.60;99.90
24468;DHT22;12634;50.852;5.676;2023-01-16T00:47:02;5.60;99.90
24468;DHT22;12634;50.852;5.676;2023-01-16T00:49:31;5.60;99.90
24468;DHT22;12634;50.852;5.676;2023-01-16T00:51:59;5.50;99.90
24468;DHT22;12634;50.852;5.676;2023-01-16T00:54:26;5.60;99.90
24468;DHT22;12634;50.852;5.676;2023-01-16T00:56:53;5.60;99.90
24468;DHT22;12634;50.852;5.676;2023-01-16T00:59:20;5.70;99.90
24468;DHT22;12634;50.852;5.676;2023-01-16T01:01:47;5.70;99.90
24468;DHT22;12634;50.852;5.676;2023-01-16T01:04:15;5.70;99.90
24468;DHT22;12634;50.852;5.676;2023-01-16T01:06:43;5.60;99.90
24468;DHT22;12634;50.852;5.676;2023-01-16T01:09:11;5.50;99.90
24468;DHT22;12634;50.852;5.676;2023-01-16T01:11:38;5.60;99.90
24468;DHT22;12634;50.852;5.676;2023-01-16T01:14:05;5.50;99.90
24468;DHT22;12634;50.852;5.676;2023-01-16T01:16:32;5.50;99.90
24468;DHT22;12634;50.852;5.676;2023-01-16T01:19:00;5.50;99.90
24468;DHT22;12634;50.852;5.676;2023-01-16T01:21:27;5.40;99.90
24468;DHT22;12634;50.852;5.676;2023-01-16T01:23:57;5.50;99.90
24468;DHT22;12634;50.852;5.676;2023-01-16T01:26:24;5.50;99.90
24468;DHT22;12634;50.852;5.676;2023-01-16T01:28:51;5.50;99.90
24468;DHT22;12634;50.852;5.676;2023-01-16T01:31:18;5.50;99.90
24468;DHT22;12634;50.852;5.676;2023-01-16T01:33:45;5.50;99.90
24468;DHT22;12634;50.852;5.676;2023-01-16T01:36:13;5.50;99.90
24468;DHT22;12634;50.852;5.676;2023-01-16T01:38:40;5.50;99.90
24468;DHT22;12634;50.852;5.676;2023-01-16T01:41:11;5.40;99.90
24468;DHT22;12634;50.852;5.676;2023-01-16T01:43:42;5.30;99.90
24468;DHT22;12634;50.852;5.676;2023-01-16T01:46:17;5.30;99.90
24468;DHT22;12634;50.852;5.676;2023-01-16T01:48:45;5.20;99.90
24468;DHT22;12634;50.852;5.676;2023-01-16T01:51:16;5.10;99.90
24468;DHT22;12634;50.852;5.676;2023-01-16T01:53:47;5.10;99.90
24468;DHT22;12634;50.852;5.676;2023-01-16T01:56:21;5.20;99.90
24468;DHT22;12634;50.852;5.676;2023-01-16T01:58:52;5.10;99.90
24468;DHT22;12634;50.852;5.676;2023-01-16T02:01:21;5.20;99.90
24468;DHT22;12634;50.852;5.676;2023-01-16T02:03:51;5.10;99.90
24468;DHT22;12634;50.852;5.676;2023-01-16T02:06:20;5.10;99.90
24468;DHT22;12634;50.852;5.676;2023-01-16T02:08:50;5.20;99.90
24468;DHT22;12634;50.852;5.676;2023-01-16T02:11:23;5.20;99.90
24468;DHT22;12634;50.852;5.676;2023-01-16T02:13:54;5.20;99.90
24468;DHT22;12634;50.852;5.676;2023-01-16T02:16:22;5.40;99.90
24468;DHT22;12634;50.852;5.676;2023-01-16T02:19:12;5.30;99.90
24468;DHT22;12634;50.852;5.676;2023-01-16T02:22:17;5.30;99.90
24468;DHT22;12634;50.852;5.676;2023-01-16T02:25:09;5.30;99.90
24468;DHT22;12634;50.852;5.676;2023-01-16T02:28:03;5.20;99.90
24468;DHT22;12634;50.852;5.676;2023-01-16T02:33:55;5.00;99.90
24468;DHT22;12634;50.852;5.676;2023-01-16T02:36:32;5.20;99.90
24468;DHT22;12634;50.852;5.676;2023-01-16T02:39:08;5.20;99.90
24468;DHT22;12634;50.852;5.676;2023-01-16T02:41:46;5.10;99.90
24468;DHT22;12634;50.852;5.676;2023-01-16T02:44:21;5.10;99.90
24468;DHT22;12634;50.852;5.676;2023-01-16T02:46:57;5.10;99.90
24468;DHT22;12634;50.852;5.676;2023-01-16T02:49:29;5.10;99.90
24468;DHT22;12634;50.852;5.676;2023-01-16T02:52:05;5.10;99.90
24468;DHT22;12634;50.852;5.676;2023-01-16T02:54:39;5.10;99.90
24468;DHT22;12634;50.852;5.676;2023-01-16T02:57:09;5.10;99.90
24468;DHT22;12634;50.852;5.676;2023-01-16T02:59:40;5.10;99.90
24468;DHT22;12634;50.852;5.676;2023-01-16T03:02:09;5.10;99.90
24468;DHT22;12634;50.852;5.676;2023-01-16T03:04:42;5.00;99.90
24468;DHT22;12634;50.852;5.676;2023-01-16T03:07:15;4.90;99.90
24468;DHT22;12634;50.852;5.676;2023-01-16T03:09:51;4.70;99.90
24468;DHT22;12634;50.852;5.676;2023-01-16T03:12:29;4.70;99.90
24468;DHT22;12634;50.852;5.676;2023-01-16T03:15:03;4.90;99.90
24468;DHT22;12634;50.852;5.676;2023-01-16T03:17:39;5.10;99.90
24468;DHT22;12634;50.852;5.676;2023-01-16T03:20:13;5.10;99.90
24468;DHT22;12634;50.852;5.676;2023-01-16T03:22:51;5.10;99.90
24468;DHT22;12634;50.852;5.676;2023-01-16T03:25:26;5.00;99.90
24468;DHT22;12634;50.852;5.676;2023-01-16T03:28:00;5.10;99.90
24468;DHT22;12634;50.852;5.676;2023-01-16T03:30:38;5.00;99.90
24468;DHT22;12634;50.852;5.676;2023-01-16T03:33:15;5.10;99.90
24468;DHT22;12634;50.852;5.676;2023-01-16T03:35:48;5.10;99.90
24468;DHT22;12634;50.852;5.676;2023-01-16T03:38:17;5.20;99.90
24468;DHT22;12634;50.852;5.676;2023-01-16T03:40:47;5.30;99.90
24468;DHT22;12634;50.852;5.676;2023-01-16T03:43:20;5.20;99.90
24468;DHT22;12634;50.852;5.676;2023-01-16T03:45:52;5.00;99.90
24468;DHT22;12634;50.852;5.676;2023-01-16T03:48:29;5.00;99.90
24468;DHT22;12634;50.852;5.676;2023-01-16T03:51:01;5.00;99.90
24468;DHT22;12634;50.852;5.676;2023-01-16T03:53:31;4.90;99.90
24468;DHT22;12634;50.852;5.676;2023-01-16T03:56:07;4.90;99.90
24468;DHT22;12634;50.852;5.676;2023-01-16T03:58:39;4.90;99.90
24468;DHT22;12634;50.852;5.676;2023-01-16T04:01:13;4.90;99.90
24468;DHT22;12634;50.852;5.676;2023-01-16T04:03:54;5.00;99.90
24468;DHT22;12634;50.852;5.676;2023-01-16T04:06:26;5.00;99.90
24468;DHT22;12634;50.852;5.676;2023-01-16T04:08:56;5.10;99.90
24468;DHT22;12634;50.852;5.676;2023-01-16T04:11:25;5.20;99.90
24468;DHT22;12634;50.852;5.676;2023-01-16T04:13:54;5.20;99.90
24468;DHT22;12634;50.852;5.676;2023-01-16T04:16:23;5.30;99.90
24468;DHT22;12634;50.852;5.676;2023-01-16T04:18:53;5.50;99.90
24468;DHT22;12634;50.852;5.676;2023-01-16T04:21:26;5.50;99.90
24468;DHT22;12634;50.852;5.676;2023-01-16T04:23:55;5.80;99.90
24468;DHT22;12634;50.852;5.676;2023-01-16T04:26:24;5.70;99.90
24468;DHT22;12634;50.852;5.676;2023-01-16T04:28:52;5.70;99.90
24468;DHT22;12634;50.852;5.676;2023-01-16T04:31:22;5.70;99.90
24468;DHT22;12634;50.852;5.676;2023-01-16T04:33:49;5.70;99.90
24468;DHT22;12634;50.852;5.676;2023-01-16T04:36:18;5.70;99.90
24468;DHT22;12634;50.852;5.676;2023-01-16T04:38:45;5.70;99.90
24468;DHT22;12634;50.852;5.676;2023-01-16T04:41:13;5.90;99.90
24468;DHT22;12634;50.852;5.676;2023-01-16T04:44:01;5.90;99.90
24468;DHT22;12634;50.852;5.676;2023-01-16T04:46:28;5.90;99.90
24468;DHT22;12634;50.852;5.676;2023-01-16T04:48:55;5.80;99.90
24468;DHT22;12634;50.852;5.676;2023-01-16T04:51:24;5.80;99.90
24468;DHT22;12634;50.852;5.676;2023-01-16T04:53:51;5.90;99.90
24468;DHT22;12634;50.852;5.676;2023-01-16T04:56:18;5.80;99.90
24468;DHT22;12634;50.852;5.676;2023-01-16T04:58:45;5.90;99.90
24468;DHT22;12634;50.852;5.676;2023-01-16T05:01:13;5.90;99.90
24468;DHT22;12634;50.852;5.676;2023-01-16T05:03:40;5.90;99.90
24468;DHT22;12634;50.852;5.676;2023-01-16T05:06:07;6.00;99.90
24468;DHT22;12634;50.852;5.676;2023-01-16T05:08:36;5.90;99.90
24468;DHT22;12634;50.852;5.676;2023-01-16T05:11:03;5.90;99.90
24468;DHT22;12634;50.852;5.676;2023-01-16T05:13:30;5.90;99.90
24468;DHT22;12634;50.852;5.676;2023-01-16T05:15:57;5.90;99.90
24468;DHT22;12634;50.852;5.676;2023-01-16T05:18:25;5.90;99.90
24468;DHT22;12634;50.852;5.676;2023-01-16T05:20:52;6.00;99.90
24468;DHT22;12634;50.852;5.676;2023-01-16T05:23:20;6.00;99.90
24468;DHT22;12634;50.852;5.676;2023-01-16T05:25:48;6.10;99.90
24468;DHT22;12634;50.852;5.676;2023-01-16T05:28:15;6.10;99.90
24468;DHT22;12634;50.852;5.676;2023-01-16T05:30:42;6.00;99.90
24468;DHT22;12634;50.852;5.676;2023-01-16T05:33:10;6.10;99.90
24468;DHT22;12634;50.852;5.676;2023-01-16T05:35:37;6.10;99.90
24468;DHT22;12634;50.852;5.676;2023-01-16T05:38:04;6.10;99.90
24468;DHT22;12634;50.852;5.676;2023-01-16T05:40:31;6.10;99.90
24468;DHT22;12634;50.852;5.676;2023-01-16T05:43:00;6.10;99.90
24468;DHT22;12634;50.852;5.676;2023-01-16T05:45:27;6.10;99.90
24468;DHT22;12634;50.852;5.676;2023-01-16T05:47:54;6.20;99.90
24468;DHT22;12634;50.852;5.676;2023-01-16T05:50:21;6.10;99.90
24468;DHT22;12634;50.852;5.676;2023-01-16T05:52:49;6.20;99.90
24468;DHT22;12634;50.852;5.676;2023-01-16T05:55:16;6.30;99.90
24468;DHT22;12634;50.852;5.676;2023-01-16T05:57:44;6.30;99.90
24468;DHT22;12634;50.852;5.676;2023-01-16T06:00:13;6.40;99.90
24468;DHT22;12634;50.852;5.676;2023-01-16T06:02:41;6.30;99.90
24468;DHT22;12634;50.852;5.676;2023-01-16T06:05:08;6.40;99.90
24468;DHT22;12634;50.852;5.676;2023-01-16T06:07:36;6.50;99.90
24468;DHT22;12634;50.852;5.676;2023-01-16T06:10:04;6.50;99.90
24468;DHT22;12634;50.852;5.676;2023-01-16T06:12:31;6.50;99.90
24468;DHT22;12634;50.852;5.676;2023-01-16T06:14:59;6.60;99.90
24468;DHT22;12634;50.852;5.676;2023-01-16T06:17:28;6.50;99.90
24468;DHT22;12634;50.852;5.676;2023-01-16T06:19:55;6.50;99.90
24468;DHT22;12634;50.852;5.676;2023-01-16T06:22:23;6.40;99.90
24468;DHT22;12634;50.852;5.676;2023-01-16T06:24:51;6.40;99.90
24468;DHT22;12634;50.852;5.676;2023-01-16T06:27:19;6.30;99.90
24468;DHT22;12634;50.852;5.676;2023-01-16T06:29:46;6.20;99.90
24468;DHT22;12634;50.852;5.676;2023-01-16T06:32:13;6.10;99.90
24468;DHT22;12634;50.852;5.676;2023-01-16T06:34:43;6.10;99.90
24468;DHT22;12634;50.852;5.676;2023-01-16T06:37:11;6.00;99.90
24468;DHT22;12634;50.852;5.676;2023-01-16T06:39:38;6.00;99.90
24468;DHT22;12634;50.852;5.676;2023-01-16T06:42:06;5.90;99.90
24468;DHT22;12634;50.852;5.676;2023-01-16T06:44:33;5.90;99.90
24468;DHT22;12634;50.852;5.676;2023-01-16T06:47:01;5.80;99.90
24468;DHT22;12634;50.852;5.676;2023-01-16T06:49:28;5.80;99.90
24468;DHT22;12634;50.852;5.676;2023-01-16T06:51:57;5.80;99.90
24468;DHT22;12634;50.852;5.676;2023-01-16T06:54:25;5.70;99.90
24468;DHT22;12634;50.852;5.676;2023-01-16T06:56:52;5.80;99.90
24468;DHT22;12634;50.852;5.676;2023-01-16T06:59:20;5.70;99.90
24468;DHT22;12634;50.852;5.676;2023-01-16T07:01:47;5.70;99.90
24468;DHT22;12634;50.852;5.676;2023-01-16T07:04:14;5.70;99.90
24468;DHT22;12634;50.852;5.676;2023-01-16T07:06:41;5.70;99.90
24468;DHT22;12634;50.852;5.676;2023-01-16T07:09:10;5.70;99.90
24468;DHT22;12634;50.852;5.676;2023-01-16T07:11:38;5.70;99.90
24468;DHT22;12634;50.852;5.676;2023-01-16T07:14:05;5.70;99.90
24468;DHT22;12634;50.852;5.676;2023-01-16T07:16:49;5.70;99.90
24468;DHT22;12634;50.852;5.676;2023-01-16T07:19:34;5.70;99.90
24468;DHT22;12634;50.852;5.676;2023-01-16T07:22:19;5.70;99.90
24468;DHT22;12634;50.852;5.676;2023-01-16T07:25:10;5.80;99.90
24468;DHT22;12634;50.852;5.676;2023-01-16T07:27:39;5.80;99.90
24468;DHT22;12634;50.852;5.676;2023-01-16T07:30:08;5.80;99.90
24468;DHT22;12634;50.852;5.676;2023-01-16T07:32:36;5.70;99.90
24468;DHT22;12634;50.852;5.676;2023-01-16T07:35:04;5.80;99.90
24468;DHT22;12634;50.852;5.676;2023-01-16T07:37:31;5.70;99.90
24468;DHT22;12634;50.852;5.676;2023-01-16T07:39:58;5.70;99.90
24468;DHT22;12634;50.852;5.676;2023-01-16T07:42:27;5.80;99.90
24468;DHT22;12634;50.852;5.676;2023-01-16T07:44:54;5.80;99.90
24468;DHT22;12634;50.852;5.676;2023-01-16T07:47:21;5.70;99.90
24468;DHT22;12634;50.852;5.676;2023-01-16T07:49:49;5.70;99.90
24468;DHT22;12634;50.852;5.676;2023-01-16T07:52:16;5.80;99.90
24468;DHT22;12634;50.852;5.676;2023-01-16T07:54:43;5.90;99.90
24468;DHT22;12634;50.852;5.676;2023-01-16T07:57:11;5.90;99.90
24468;DHT22;12634;50.852;5.676;2023-01-16T07:59:39;5.80;99.90
24468;DHT22;12634;50.852;5.676;2023-01-16T08:02:08;5.90;99.90
24468;DHT22;12634;50.852;5.676;2023-01-16T08:04:35;5.90;99.90
24468;DHT22;12634;50.852;5.676;2023-01-16T08:07:02;6.00;99.90
24468;DHT22;12634;50.852;5.676;2023-01-16T08:09:30;6.00;99.90
24468;DHT22;12634;50.852;5.676;2023-01-16T08:11:57;6.00;99.90
24468;DHT22;12634;50.852;5.676;2023-01-16T08:14:24;6.00;99.90
24468;DHT22;12634;50.852;5.676;2023-01-16T08:16:53;5.90;99.90
24468;DHT22;12634;50.852;5.676;2023-01-16T08:19:20;5.80;99.90
24468;DHT22;12634;50.852;5.676;2023-01-16T08:21:47;5.90;99.90
24468;DHT22;12634;50.852;5.676;2023-01-16T08:24:14;5.90;99.90
24468;DHT22;12634;50.852;5.676;2023-01-16T08:26:41;5.80;99.90
24468;DHT22;12634;50.852;5.676;2023-01-16T08:29:09;5.80;99.90
24468;DHT22;12634;50.852;5.676;2023-01-16T08:31:37;5.80;99.90
24468;DHT22;12634;50.852;5.676;2023-01-16T08:34:05;5.80;99.90
24468;DHT22;12634;50.852;5.676;2023-01-16T08:36:32;5.80;99.90
24468;DHT22;12634;50.852;5.676;2023-01-16T08:39:00;5.80;99.90
24468;DHT22;12634;50.852;5.676;2023-01-16T08:41:27;5.80;99.90
24468;DHT22;12634;50.852;5.676;2023-01-16T08:44:12;5.90;99.90
24468;DHT22;12634;50.852;5.676;2023-01-16T08:46:59;5.90;99.90
24468;DHT22;12634;50.852;5.676;2023-01-16T08:49:47;5.90;99.90
24468;DHT22;12634;50.852;5.676;2023-01-16T08:52:32;5.80;99.90
24468;DHT22;12634;50.852;5.676;2023-01-16T08:55:00;5.80;99.90
24468;DHT22;12634;50.852;5.676;2023-01-16T08:57:27;5.80;99.90
24468;DHT22;12634;50.852;5.676;2023-01-16T08:59:55;5.80;99.90
24468;DHT22;12634;50.852;5.676;2023-01-16T09:02:23;5.70;99.90
24468;DHT22;12634;50.852;5.676;2023-01-16T09:04:52;5.70;99.90
24468;DHT22;12634;50.852;5.676;2023-01-16T09:07:20;5.70;99.90
24468;DHT22;12634;50.852;5.676;2023-01-16T09:09:48;5.70;99.90
24468;DHT22;12634;50.852;5.676;2023-01-16T09:12:15;5.70;99.90
24468;DHT22;12634;50.852;5.676;2023-01-16T09:14:59;5.70;99.90
24468;DHT22;12634;50.852;5.676;2023-01-16T09:17:27;5.70;99.90
24468;DHT22;12634;50.852;5.676;2023-01-16T09:19:55;5.60;99.90
24468;DHT22;12634;50.852;5.676;2023-01-16T09:22:23;5.60;99.90
24468;DHT22;12634;50.852;5.676;2023-01-16T09:24:52;5.70;99.90
24468;DHT22;12634;50.852;5.676;2023-01-16T09:27:20;5.70;99.90
24468;DHT22;12634;50.852;5.676;2023-01-16T09:29:48;5.70;99.90
24468;DHT22;12634;50.852;5.676;2023-01-16T09:32:15;5.70;99.90
24468;DHT22;12634;50.852;5.676;2023-01-16T09:34:44;5.70;99.90
24468;DHT22;12634;50.852;5.676;2023-01-16T09:37:13;5.70;99.90
24468;DHT22;12634;50.852;5.676;2023-01-16T09:39:40;5.80;99.90
24468;DHT22;12634;50.852;5.676;2023-01-16T09:42:28;5.90;99.90
24468;DHT22;12634;50.852;5.676;2023-01-16T09:45:17;6.30;99.90
24468;DHT22;12634;50.852;5.676;2023-01-16T09:47:48;6.60;99.90
24468;DHT22;12634;50.852;5.676;2023-01-16T09:50:28;6.60;99.90
24468;DHT22;12634;50.852;5.676;2023-01-16T09:52:59;6.70;99.90
24468;DHT22;12634;50.852;5.676;2023-01-16T09:55:46;6.60;99.90
24468;DHT22;12634;50.852;5.676;2023-01-16T09:58:32;6.60;99.90
24468;DHT22;12634;50.852;5.676;2023-01-16T10:01:02;6.70;99.90
24468;DHT22;12634;50.852;5.676;2023-01-16T10:03:30;6.80;99.90
24468;DHT22;12634;50.852;5.676;2023-01-16T10:06:03;6.90;99.90
24468;DHT22;12634;50.852;5.676;2023-01-16T10:08:41;7.00;99.90
24468;DHT22;12634;50.852;5.676;2023-01-16T10:11:17;6.60;99.90
24468;DHT22;12634;50.852;5.676;2023-01-16T10:14:01;6.60;99.90
24468;DHT22;12634;50.852;5.676;2023-01-16T10:16:41;6.50;99.90
24468;DHT22;12634;50.852;5.676;2023-01-16T10:19:18;6.60;99.90
24468;DHT22;12634;50.852;5.676;2023-01-16T10:22:00;7.00;99.90
24468;DHT22;12634;50.852;5.676;2023-01-16T10:24:37;7.00;99.90
24468;DHT22;12634;50.852;5.676;2023-01-16T10:27:13;7.30;99.90
24468;DHT22;12634;50.852;5.676;2023-01-16T10:29:49;7.20;99.90
24468;DHT22;12634;50.852;5.676;2023-01-16T10:32:23;7.50;99.90
24468;DHT22;12634;50.852;5.676;2023-01-16T10:34:54;7.40;99.90
24468;DHT22;12634;50.852;5.676;2023-01-16T10:37:26;7.50;99.90
24468;DHT22;12634;50.852;5.676;2023-01-16T10:39:57;7.30;99.90
24468;DHT22;12634;50.852;5.676;2023-01-16T10:42:29;7.50;99.90
24468;DHT22;12634;50.852;5.676;2023-01-16T10:45:19;7.60;99.90
24468;DHT22;12634;50.852;5.676;2023-01-16T10:48:08;7.50;99.90
24468;DHT22;12634;50.852;5.676;2023-01-16T10:50:54;7.20;99.90
24468;DHT22;12634;50.852;5.676;2023-01-16T10:53:21;6.90;99.90
24468;DHT22;12634;50.852;5.676;2023-01-16T10:55:51;7.10;99.90
24468;DHT22;12634;50.852;5.676;2023-01-16T10:58:27;7.40;99.90
24468;DHT22;12634;50.852;5.676;2023-01-16T11:00:59;7.70;99.90
24468;DHT22;12634;50.852;5.676;2023-01-16T11:03:35;7.40;99.90
24468;DHT22;12634;50.852;5.676;2023-01-16T11:06:12;7.20;99.90
24468;DHT22;12634;50.852;5.676;2023-01-16T11:08:41;7.20;99.90
24468;DHT22;12634;50.852;5.676;2023-01-16T11:11:11;7.10;99.90
24468;DHT22;12634;50.852;5.676;2023-01-16T11:13:53;7.00;99.90
24468;DHT22;12634;50.852;5.676;2023-01-16T11:16:38;6.90;99.90
24468;DHT22;12634;50.852;5.676;2023-01-16T11:19:24;6.90;99.90
24468;DHT22;12634;50.852;5.676;2023-01-16T11:21:54;6.80;99.90
24468;DHT22;12634;50.852;5.676;2023-01-16T11:24:23;6.90;99.90
24468;DHT22;12634;50.852;5.676;2023-01-16T11:26:54;6.90;99.90
24468;DHT22;12634;50.852;5.676;2023-01-16T11:29:24;6.90;99.90
24468;DHT22;12634;50.852;5.676;2023-01-16T11:31:54;6.90;99.90
24468;DHT22;12634;50.852;5.676;2023-01-16T11:34:24;7.00;99.90
24468;DHT22;12634;50.852;5.676;2023-01-16T11:36:53;7.10;99.90
24468;DHT22;12634;50.852;5.676;2023-01-16T11:39:22;7.10;99.90
24468;DHT22;12634;50.852;5.676;2023-01-16T11:41:55;7.30;99.90
24468;DHT22;12634;50.852;5.676;2023-01-16T11:44:26;7.50;99.90
24468;DHT22;12634;50.852;5.676;2023-01-16T11:47:14;7.60;99.90
24468;DHT22;12634;50.852;5.676;2023-01-16T11:49:45;7.90;99.90
24468;DHT22;12634;50.852;5.676;2023-01-16T11:52:14;8.00;99.90
24468;DHT22;12634;50.852;5.676;2023-01-16T11:54:53;8.40;99.90
24468;DHT22;12634;50.852;5.676;2023-01-16T11:57:38;8.00;99.90
24468;DHT22;12634;50.852;5.676;2023-01-16T12:00:30;8.30;99.90
24468;DHT22;12634;50.852;5.676;2023-01-16T12:06:15;7.50;99.90
24468;DHT22;12634;50.852;5.676;2023-01-16T12:09:16;7.50;99.90
24468;DHT22;12634;50.852;5.676;2023-01-16T12:12:08;7.30;99.90
24468;DHT22;12634;50.852;5.676;2023-01-16T12:14:53;7.10;99.90
24468;DHT22;12634;50.852;5.676;2023-01-16T12:17:29;7.00;99.90
24468;DHT22;12634;50.852;5.676;2023-01-16T12:20:08;6.90;99.90
24468;DHT22;12634;50.852;5.676;2023-01-16T12:22:56;6.90;99.90
24468;DHT22;12634;50.852;5.676;2023-01-16T12:25:31;6.80;99.90
24468;DHT22;12634;50.852;5.676;2023-01-16T12:28:14;6.80;99.90
24468;DHT22;12634;50.852;5.676;2023-01-16T12:30:58;6.80;99.90
24468;DHT22;12634;50.852;5.676;2023-01-16T12:33:44;6.90;99.90
24468;DHT22;12634;50.852;5.676;2023-01-16T12:36:20;6.90;99.90
24468;DHT22;12634;50.852;5.676;2023-01-16T12:38:55;6.90;99.90
24468;DHT22;12634;50.852;5.676;2023-01-16T12:41:30;7.00;99.90
24468;DHT22;12634;50.852;5.676;2023-01-16T12:44:31;6.90;99.90
24468;DHT22;12634;50.852;5.676;2023-01-16T12:47:26;6.90;99.90
24468;DHT22;12634;50.852;5.676;2023-01-16T12:50:07;6.90;99.90
24468;DHT22;12634;50.852;5.676;2023-01-16T12:53:00;6.80;99.90
24468;DHT22;12634;50.852;5.676;2023-01-16T12:55:40;6.60;99.90
24468;DHT22;12634;50.852;5.676;2023-01-16T12:58:14;6.50;99.90
24468;DHT22;12634;50.852;5.676;2023-01-16T13:00:46;6.50;99.90
24468;DHT22;12634;50.852;5.676;2023-01-16T13:03:25;6.40;99.90
24468;DHT22;12634;50.852;5.676;2023-01-16T13:05:55;6.40;99.90
24468;DHT22;12634;50.852;5.676;2023-01-16T13:08:26;6.50;99.90
24468;DHT22;12634;50.852;5.676;2023-01-16T13:10:59;6.50;99.90
24468;DHT22;12634;50.852;5.676;2023-01-16T13:13:50;6.60;99.90
24468;DHT22;12634;50.852;5.676;2023-01-16T13:16:22;6.60;99.90
24468;DHT22;12634;50.852;5.676;2023-01-16T13:18:58;6.60;99.90
24468;DHT22;12634;50.852;5.676;2023-01-16T13:21:30;6.60;99.90
24468;DHT22;12634;50.852;5.676;2023-01-16T13:24:03;6.70;99.90
24468;DHT22;12634;50.852;5.676;2023-01-16T13:26:31;6.60;99.90
24468;DHT22;12634;50.852;5.676;2023-01-16T13:29:05;6.70;99.90
24468;DHT22;12634;50.852;5.676;2023-01-16T13:31:38;6.70;99.90
24468;DHT22;12634;50.852;5.676;2023-01-16T13:34:13;6.70;99.90
24468;DHT22;12634;50.852;5.676;2023-01-16T13:37:12;6.80;99.90
24468;DHT22;12634;50.852;5.676;2023-01-16T13:40:13;6.80;99.90
24468;DHT22;12634;50.852;5.676;2023-01-16T13:42:50;6.80;99.90
24468;DHT22;12634;50.852;5.676;2023-01-16T13:45:29;6.70;99.90
24468;DHT22;12634;50.852;5.676;2023-01-16T13:48:14;6.70;99.90
24468;DHT22;12634;50.852;5.676;2023-01-16T13:50:52;6.70;99.90
24468;DHT22;12634;50.852;5.676;2023-01-16T13:53:21;6.50;99.90
24468;DHT22;12634;50.852;5.676;2023-01-16T13:55:49;6.40;99.90
24468;DHT22;12634;50.852;5.676;2023-01-16T13:58:19;6.20;99.90
24468;DHT22;12634;50.852;5.676;2023-01-16T14:00:55;6.10;99.90
24468;DHT22;12634;50.852;5.676;2023-01-16T14:03:25;6.00;99.90
24468;DHT22;12634;50.852;5.676;2023-01-16T14:06:14;6.00;99.90
24468;DHT22;12634;50.852;5.676;2023-01-16T14:08:48;5.90;99.90
24468;DHT22;12634;50.852;5.676;2023-01-16T14:11:37;5.90;99.90
24468;DHT22;12634;50.852;5.676;2023-01-16T14:14:32;5.80;99.90
24468;DHT22;12634;50.852;5.676;2023-01-16T14:17:19;5.70;99.90
24468;DHT22;12634;50.852;5.676;2023-01-16T14:19:55;5.60;99.90
24468;DHT22;12634;50.852;5.676;2023-01-16T14:22:33;5.50;99.90
24468;DHT22;12634;50.852;5.676;2023-01-16T14:25:21;5.50;99.90
24468;DHT22;12634;50.852;5.676;2023-01-16T14:27:52;5.50;99.90
24468;DHT22;12634;50.852;5.676;2023-01-16T14:30:24;5.40;99.90
24468;DHT22;12634;50.852;5.676;2023-01-16T14:32:55;5.40;99.90
24468;DHT22;12634;50.852;5.676;2023-01-16T14:35:26;5.40;99.90
24468;DHT22;12634;50.852;5.676;2023-01-16T14:37:57;5.40;99.90
24468;DHT22;12634;50.852;5.676;2023-01-16T14:40:28;5.40;99.90
24468;DHT22;12634;50.852;5.676;2023-01-16T14:43:17;5.40;99.90
24468;DHT22;12634;50.852;5.676;2023-01-16T14:46:29;5.30;99.90
24468;DHT22;12634;50.852;5.676;2023-01-16T14:49:43;5.30;99.90
24468;DHT22;12634;50.852;5.676;2023-01-16T14:52:46;5.30;99.90
24468;DHT22;12634;50.852;5.676;2023-01-16T14:55:42;5.20;99.90
24468;DHT22;12634;50.852;5.676;2023-01-16T14:58:15;5.20;99.90
24468;DHT22;12634;50.852;5.676;2023-01-16T15:00:43;5.20;99.90
24468;DHT22;12634;50.852;5.676;2023-01-16T15:03:12;5.30;99.90
24468;DHT22;12634;50.852;5.676;2023-01-16T15:05:46;5.30;99.90
24468;DHT22;12634;50.852;5.676;2023-01-16T15:08:18;5.30;99.90
24468;DHT22;12634;50.852;5.676;2023-01-16T15:10:51;5.30;99.90
24468;DHT22;12634;50.852;5.676;2023-01-16T15:13:22;5.30;99.90
24468;DHT22;12634;50.852;5.676;2023-01-16T15:15:52;5.30;99.90
24468;DHT22;12634;50.852;5.676;2023-01-16T15:18:20;5.30;99.90
24468;DHT22;12634;50.852;5.676;2023-01-16T15:21:12;5.30;99.90
24468;DHT22;12634;50.852;5.676;2023-01-16T15:23:59;5.30;99.90
24468;DHT22;12634;50.852;5.676;2023-01-16T15:26:39;5.30;99.90
24468;DHT22;12634;50.852;5.676;2023-01-16T15:29:20;5.30;99.90
24468;DHT22;12634;50.852;5.676;2023-01-16T15:31:55;5.40;99.90
24468;DHT22;12634;50.852;5.676;2023-01-16T15:34:28;5.40;99.90
24468;DHT22;12634;50.852;5.676;2023-01-16T15:36:57;5.40;99.90
24468;DHT22;12634;50.852;5.676;2023-01-16T15:39:30;5.30;99.90
24468;DHT22;12634;50.852;5.676;2023-01-16T15:42:03;5.40;99.90
24468;DHT22;12634;50.852;5.676;2023-01-16T15:44:50;5.40;99.90
24468;DHT22;12634;50.852;5.676;2023-01-16T15:47:49;5.40;99.90
24468;DHT22;12634;50.852;5.676;2023-01-16T15:50:33;5.40;99.90
24468;DHT22;12634;50.852;5.676;2023-01-16T15:53:03;5.40;99.90
24468;DHT22;12634;50.852;5.676;2023-01-16T15:55:36;5.30;99.90
24468;DHT22;12634;50.852;5.676;2023-01-16T15:58:06;5.40;99.90
24468;DHT22;12634;50.852;5.676;2023-01-16T16:00:38;5.30;99.90
24468;DHT22;12634;50.852;5.676;2023-01-16T16:03:11;5.40;99.90
24468;DHT22;12634;50.852;5.676;2023-01-16T16:05:44;5.40;99.90
24468;DHT22;12634;50.852;5.676;2023-01-16T16:08:15;5.40;99.90
24468;DHT22;12634;50.852;5.676;2023-01-16T16:10:43;5.40;99.90
24468;DHT22;12634;50.852;5.676;2023-01-16T16:13:29;5.40;99.90
24468;DHT22;12634;50.852;5.676;2023-01-16T16:15:59;5.40;99.90
24468;DHT22;12634;50.852;5.676;2023-01-16T16:18:54;5.40;99.90
24468;DHT22;12634;50.852;5.676;2023-01-16T16:21:24;5.40;99.90
24468;DHT22;12634;50.852;5.676;2023-01-16T16:23:59;5.40;99.90
24468;DHT22;12634;50.852;5.676;2023-01-16T16:26:27;5.40;99.90
24468;DHT22;12634;50.852;5.676;2023-01-16T16:28:57;5.40;99.90